sensor_id;sensor_type;location;lat;lon;timestamp;P1;durP1;ratioP1;P2;durP2;ratioP2
11572;SDS011;5842;52.426;4.886;2022-07-23T00:00:48;5.57;;;4.40;;
11572;SDS011;5842;52.426;4.886;2022-07-23T00:03:15;5.60;;;4.17;;
11572;SDS011;5842;52.426;4.886;2022-07-23T00:05:42;6.23;;;4.03;;
11572;SDS011;5842;52.426;4.886;2022-07-23T00:08:09;4.43;;;3.90;;
11572;SDS011;5842;52.426;4.886;2022-07-23T00:10:38;6.50;;;4.53;;
11572;SDS011;5842;52.426;4.886;2022-07-23T00:13:05;5.87;;;4.37;;
11572;SDS011;5842;52.426;4.886;2022-07-23T00:15:32;7.03;;;4.00;;
11572;SDS011;5842;52.426;4.886;2022-07-23T00:17:59;4.87;;;4.20;;
11572;SDS011;5842;52.426;4.886;2022-07-23T00:20:27;5.27;;;4.30;;
11572;SDS011;5842;52.426;4.886;2022-07-23T00:22:54;5.57;;;4.43;;
11572;SDS011;5842;52.426;4.886;2022-07-23T00:25:22;5.17;;;4.43;;
11572;SDS011;5842;52.426;4.886;2022-07-23T00:27:52;6.00;;;4.47;;
11572;SDS011;5842;52.426;4.886;2022-07-23T00:30:19;7.33;;;4.60;;
11572;SDS011;5842;52.426;4.886;2022-07-23T00:32:46;6.70;;;5.00;;
11572;SDS011;5842;52.426;4.886;2022-07-23T00:35:14;7.00;;;4.63;;
11572;SDS011;5842;52.426;4.886;2022-07-23T00:37:42;8.40;;;4.70;;
11572;SDS011;5842;52.426;4.886;2022-07-23T00:40:10;6.63;;;4.00;;
11572;SDS011;5842;52.426;4.886;2022-07-23T00:42:38;6.63;;;4.90;;
11572;SDS011;5842;52.426;4.886;2022-07-23T00:45:07;5.63;;;4.80;;
11572;SDS011;5842;52.426;4.886;2022-07-23T00:47:35;5.93;;;4.33;;
11572;SDS011;5842;52.426;4.886;2022-07-23T00:50:02;5.37;;;4.50;;
11572;SDS011;5842;52.426;4.886;2022-07-23T00:52:30;6.83;;;4.60;;
11572;SDS011;5842;52.426;4.886;2022-07-23T00:54:58;6.17;;;4.60;;
11572;SDS011;5842;52.426;4.886;2022-07-23T00:57:26;7.13;;;4.53;;
11572;SDS011;5842;52.426;4.886;2022-07-23T00:59:53;5.20;;;4.70;;
11572;SDS011;5842;52.426;4.886;2022-07-23T01:02:22;6.70;;;4.87;;
11572;SDS011;5842;52.426;4.886;2022-07-23T01:04:50;5.47;;;4.57;;
11572;SDS011;5842;52.426;4.886;2022-07-23T01:07:17;9.33;;;5.23;;
11572;SDS011;5842;52.426;4.886;2022-07-23T01:09:45;8.50;;;5.30;;
11572;SDS011;5842;52.426;4.886;2022-07-23T01:12:13;5.93;;;4.73;;
11572;SDS011;5842;52.426;4.886;2022-07-23T01:14:40;5.67;;;4.53;;
11572;SDS011;5842;52.426;4.886;2022-07-23T01:17:07;7.47;;;5.10;;
11572;SDS011;5842;52.426;4.886;2022-07-23T01:19:38;6.10;;;4.87;;
11572;SDS011;5842;52.426;4.886;2022-07-23T01:22:05;6.67;;;5.00;;
11572;SDS011;5842;52.426;4.886;2022-07-23T01:24:34;6.57;;;5.30;;
11572;SDS011;5842;52.426;4.886;2022-07-23T01:27:02;5.93;;;4.90;;
11572;SDS011;5842;52.426;4.886;2022-07-23T01:29:30;6.20;;;5.20;;
11572;SDS011;5842;52.426;4.886;2022-07-23T01:31:57;6.00;;;4.80;;
11572;SDS011;5842;52.426;4.886;2022-07-23T01:34:24;7.67;;;5.20;;
11572;SDS011;5842;52.426;4.886;2022-07-23T01:36:51;8.23;;;5.57;;
11572;SDS011;5842;52.426;4.886;2022-07-23T01:39:19;9.20;;;5.37;;
11572;SDS011;5842;52.426;4.886;2022-07-23T01:41:47;6.73;;;4.83;;
11572;SDS011;5842;52.426;4.886;2022-07-23T01:44:14;7.27;;;5.47;;
11572;SDS011;5842;52.426;4.886;2022-07-23T01:46:41;7.63;;;5.17;;
11572;SDS011;5842;52.426;4.886;2022-07-23T01:49:09;7.60;;;4.90;;
11572;SDS011;5842;52.426;4.886;2022-07-23T01:51:36;6.57;;;5.43;;
11572;SDS011;5842;52.426;4.886;2022-07-23T01:54:23;9.03;;;5.83;;
11572;SDS011;5842;52.426;4.886;2022-07-23T01:56:52;8.33;;;5.13;;
11572;SDS011;5842;52.426;4.886;2022-07-23T01:59:19;7.90;;;5.20;;
11572;SDS011;5842;52.426;4.886;2022-07-23T02:01:46;8.43;;;5.80;;
11572;SDS011;5842;52.426;4.886;2022-07-23T02:04:15;10.40;;;6.20;;
11572;SDS011;5842;52.426;4.886;2022-07-23T02:06:42;8.17;;;5.23;;
11572;SDS011;5842;52.426;4.886;2022-07-23T02:09:10;8.33;;;6.00;;
11572;SDS011;5842;52.426;4.886;2022-07-23T02:11:37;9.03;;;5.83;;
11572;SDS011;5842;52.426;4.886;2022-07-23T02:14:06;7.07;;;5.60;;
11572;SDS011;5842;52.426;4.886;2022-07-23T02:16:34;10.03;;;5.87;;
11572;SDS011;5842;52.426;4.886;2022-07-23T02:19:01;6.43;;;5.60;;
11572;SDS011;5842;52.426;4.886;2022-07-23T02:21:28;7.23;;;5.60;;
11572;SDS011;5842;52.426;4.886;2022-07-23T02:23:56;9.60;;;5.60;;
11572;SDS011;5842;52.426;4.886;2022-07-23T02:26:23;7.47;;;5.53;;
11572;SDS011;5842;52.426;4.886;2022-07-23T02:28:50;8.53;;;5.73;;
11572;SDS011;5842;52.426;4.886;2022-07-23T02:31:19;7.97;;;5.83;;
11572;SDS011;5842;52.426;4.886;2022-07-23T02:33:46;8.17;;;5.97;;
11572;SDS011;5842;52.426;4.886;2022-07-23T02:36:13;7.30;;;5.67;;
11572;SDS011;5842;52.426;4.886;2022-07-23T02:38:40;7.40;;;6.10;;
11572;SDS011;5842;52.426;4.886;2022-07-23T02:41:07;8.33;;;5.40;;
11572;SDS011;5842;52.426;4.886;2022-07-23T02:43:35;5.97;;;4.83;;
11572;SDS011;5842;52.426;4.886;2022-07-23T02:46:02;7.20;;;5.07;;
11572;SDS011;5842;52.426;4.886;2022-07-23T02:48:31;6.33;;;4.77;;
11572;SDS011;5842;52.426;4.886;2022-07-23T02:50:58;5.97;;;4.70;;
11572;SDS011;5842;52.426;4.886;2022-07-23T02:53:25;9.50;;;5.50;;
11572;SDS011;5842;52.426;4.886;2022-07-23T02:55:52;7.60;;;5.43;;
11572;SDS011;5842;52.426;4.886;2022-07-23T02:58:19;8.90;;;5.47;;
11572;SDS011;5842;52.426;4.886;2022-07-23T03:00:46;7.10;;;5.57;;
11572;SDS011;5842;52.426;4.886;2022-07-23T03:03:14;7.73;;;5.93;;
11572;SDS011;5842;52.426;4.886;2022-07-23T03:05:43;8.37;;;5.83;;
11572;SDS011;5842;52.426;4.886;2022-07-23T03:08:12;7.30;;;5.80;;
11572;SDS011;5842;52.426;4.886;2022-07-23T03:10:39;8.80;;;6.50;;
11572;SDS011;5842;52.426;4.886;2022-07-23T03:13:07;8.57;;;6.50;;
11572;SDS011;5842;52.426;4.886;2022-07-23T03:15:34;10.77;;;6.50;;
11572;SDS011;5842;52.426;4.886;2022-07-23T03:18:01;8.93;;;6.17;;
11572;SDS011;5842;52.426;4.886;2022-07-23T03:20:28;8.63;;;6.20;;
11572;SDS011;5842;52.426;4.886;2022-07-23T03:23:00;9.57;;;6.40;;
11572;SDS011;5842;52.426;4.886;2022-07-23T03:25:27;9.37;;;6.20;;
11572;SDS011;5842;52.426;4.886;2022-07-23T03:27:54;9.50;;;6.93;;
11572;SDS011;5842;52.426;4.886;2022-07-23T03:30:22;8.93;;;6.33;;
11572;SDS011;5842;52.426;4.886;2022-07-23T03:32:50;9.17;;;6.90;;
11572;SDS011;5842;52.426;4.886;2022-07-23T03:35:17;8.43;;;6.70;;
11572;SDS011;5842;52.426;4.886;2022-07-23T03:37:44;9.90;;;7.00;;
11572;SDS011;5842;52.426;4.886;2022-07-23T03:40:13;7.80;;;6.20;;
11572;SDS011;5842;52.426;4.886;2022-07-23T03:42:40;8.40;;;6.87;;
11572;SDS011;5842;52.426;4.886;2022-07-23T03:45:08;8.47;;;6.70;;
11572;SDS011;5842;52.426;4.886;2022-07-23T03:47:36;11.03;;;7.83;;
11572;SDS011;5842;52.426;4.886;2022-07-23T03:50:04;11.57;;;7.30;;
11572;SDS011;5842;52.426;4.886;2022-07-23T03:52:32;12.77;;;7.73;;
11572;SDS011;5842;52.426;4.886;2022-07-23T03:54:59;10.33;;;6.97;;
11572;SDS011;5842;52.426;4.886;2022-07-23T03:57:28;10.17;;;7.20;;
11572;SDS011;5842;52.426;4.886;2022-07-23T03:59:56;11.80;;;7.80;;
11572;SDS011;5842;52.426;4.886;2022-07-23T04:02:23;13.70;;;8.10;;
11572;SDS011;5842;52.426;4.886;2022-07-23T04:04:50;9.83;;;7.43;;
11572;SDS011;5842;52.426;4.886;2022-07-23T04:07:18;10.73;;;7.37;;
11572;SDS011;5842;52.426;4.886;2022-07-23T04:09:45;11.47;;;7.13;;
11572;SDS011;5842;52.426;4.886;2022-07-23T04:12:12;9.20;;;6.50;;
11572;SDS011;5842;52.426;4.886;2022-07-23T04:14:41;8.90;;;6.53;;
11572;SDS011;5842;52.426;4.886;2022-07-23T04:17:08;8.97;;;6.47;;
11572;SDS011;5842;52.426;4.886;2022-07-23T04:19:35;8.40;;;6.67;;
11572;SDS011;5842;52.426;4.886;2022-07-23T04:22:04;10.53;;;6.00;;
11572;SDS011;5842;52.426;4.886;2022-07-23T04:24:32;9.53;;;6.83;;
11572;SDS011;5842;52.426;4.886;2022-07-23T04:27:00;8.90;;;7.13;;
11572;SDS011;5842;52.426;4.886;2022-07-23T04:29:27;10.70;;;7.10;;
11572;SDS011;5842;52.426;4.886;2022-07-23T04:31:56;8.47;;;6.53;;
11572;SDS011;5842;52.426;4.886;2022-07-23T04:34:23;8.10;;;6.60;;
11572;SDS011;5842;52.426;4.886;2022-07-23T04:36:51;8.13;;;6.40;;
11572;SDS011;5842;52.426;4.886;2022-07-23T04:39:19;9.43;;;6.43;;
11572;SDS011;5842;52.426;4.886;2022-07-23T04:41:49;8.50;;;6.10;;
11572;SDS011;5842;52.426;4.886;2022-07-23T04:44:16;6.90;;;5.27;;
11572;SDS011;5842;52.426;4.886;2022-07-23T04:46:43;6.23;;;4.87;;
11572;SDS011;5842;52.426;4.886;2022-07-23T04:49:12;4.83;;;3.67;;
11572;SDS011;5842;52.426;4.886;2022-07-23T04:51:39;3.27;;;2.97;;
11572;SDS011;5842;52.426;4.886;2022-07-23T04:54:07;3.10;;;2.80;;
11572;SDS011;5842;52.426;4.886;2022-07-23T04:56:34;3.10;;;2.50;;
11572;SDS011;5842;52.426;4.886;2022-07-23T04:59:01;3.27;;;2.70;;
11572;SDS011;5842;52.426;4.886;2022-07-23T05:01:28;2.40;;;2.20;;
11572;SDS011;5842;52.426;4.886;2022-07-23T05:03:55;3.40;;;2.90;;
11572;SDS011;5842;52.426;4.886;2022-07-23T05:06:24;3.27;;;2.97;;
11572;SDS011;5842;52.426;4.886;2022-07-23T05:58:05;2.22;;;1.80;;
11572;SDS011;5842;52.426;4.886;2022-07-23T06:00:34;3.20;;;2.20;;
11572;SDS011;5842;52.426;4.886;2022-07-23T06:03:01;2.97;;;2.03;;
11572;SDS011;5842;52.426;4.886;2022-07-23T06:05:28;2.72;;;1.70;;
11572;SDS011;5842;52.426;4.886;2022-07-23T06:07:55;2.53;;;1.40;;
11572;SDS011;5842;52.426;4.886;2022-07-23T06:10:24;1.50;;;1.40;;
11572;SDS011;5842;52.426;4.886;2022-07-23T06:12:51;2.53;;;1.85;;
11572;SDS011;5842;52.426;4.886;2022-07-23T06:15:19;2.38;;;1.65;;
11572;SDS011;5842;52.426;4.886;2022-07-23T14:19:26;5.90;;;5.20;;
11572;SDS011;5842;52.426;4.886;2022-07-23T14:21:54;7.18;;;4.25;;
11572;SDS011;5842;52.426;4.886;2022-07-23T14:24:21;5.43;;;4.68;;
11572;SDS011;5842;52.426;4.886;2022-07-23T14:26:49;6.32;;;4.07;;
11572;SDS011;5842;52.426;4.886;2022-07-23T14:29:17;5.43;;;4.72;;
11572;SDS011;5842;52.426;4.886;2022-07-23T14:31:44;5.85;;;4.45;;
11572;SDS011;5842;52.426;4.886;2022-07-23T14:34:12;5.40;;;4.28;;
11572;SDS011;5842;52.426;4.886;2022-07-23T14:36:39;5.45;;;4.60;;
11572;SDS011;5842;52.426;4.886;2022-07-23T14:39:06;5.22;;;4.55;;
11572;SDS011;5842;52.426;4.886;2022-07-23T14:41:34;4.78;;;3.70;;
11572;SDS011;5842;52.426;4.886;2022-07-23T14:44:02;4.93;;;3.97;;
11572;SDS011;5842;52.426;4.886;2022-07-23T14:46:31;4.10;;;3.65;;
11572;SDS011;5842;52.426;4.886;2022-07-23T14:48:58;3.92;;;3.30;;
11572;SDS011;5842;52.426;4.886;2022-07-23T14:51:35;5.30;;;4.45;;
11572;SDS011;5842;52.426;4.886;2022-07-23T14:54:03;4.93;;;4.40;;
11572;SDS011;5842;52.426;4.886;2022-07-23T14:56:31;3.88;;;3.53;;
11572;SDS011;5842;52.426;4.886;2022-07-23T14:58:58;4.22;;;3.67;;
11572;SDS011;5842;52.426;4.886;2022-07-23T15:01:27;4.82;;;4.40;;
11572;SDS011;5842;52.426;4.886;2022-07-23T15:03:57;5.20;;;4.75;;
11572;SDS011;5842;52.426;4.886;2022-07-23T15:06:24;5.57;;;4.68;;
11572;SDS011;5842;52.426;4.886;2022-07-23T15:08:52;7.80;;;5.28;;
11572;SDS011;5842;52.426;4.886;2022-07-23T15:11:19;6.55;;;4.10;;
11572;SDS011;5842;52.426;4.886;2022-07-23T15:13:49;4.82;;;4.00;;
11572;SDS011;5842;52.426;4.886;2022-07-23T15:16:17;6.75;;;4.47;;
11572;SDS011;5842;52.426;4.886;2022-07-23T15:18:44;4.22;;;3.83;;
11572;SDS011;5842;52.426;4.886;2022-07-23T15:21:13;4.70;;;4.10;;
11572;SDS011;5842;52.426;4.886;2022-07-23T15:23:40;5.18;;;4.40;;
11572;SDS011;5842;52.426;4.886;2022-07-23T15:26:08;4.78;;;4.13;;
11572;SDS011;5842;52.426;4.886;2022-07-23T15:31:31;6.40;;;4.65;;
11572;SDS011;5842;52.426;4.886;2022-07-23T15:33:58;6.75;;;5.05;;
11572;SDS011;5842;52.426;4.886;2022-07-23T15:36:33;4.30;;;3.53;;
11572;SDS011;5842;52.426;4.886;2022-07-23T15:39:00;3.95;;;3.58;;
11572;SDS011;5842;52.426;4.886;2022-07-23T15:41:29;6.63;;;4.57;;
11572;SDS011;5842;52.426;4.886;2022-07-23T15:43:56;5.13;;;4.05;;
11572;SDS011;5842;52.426;4.886;2022-07-23T15:46:23;5.22;;;4.30;;
11572;SDS011;5842;52.426;4.886;2022-07-23T15:48:51;4.47;;;3.45;;
11572;SDS011;5842;52.426;4.886;2022-07-23T15:51:21;4.80;;;3.17;;
11572;SDS011;5842;52.426;4.886;2022-07-23T15:53:50;4.80;;;3.22;;
11572;SDS011;5842;52.426;4.886;2022-07-23T15:56:17;4.38;;;3.13;;
11572;SDS011;5842;52.426;4.886;2022-07-23T15:58:45;4.35;;;2.88;;
11572;SDS011;5842;52.426;4.886;2022-07-23T16:01:12;3.75;;;3.20;;
11572;SDS011;5842;52.426;4.886;2022-07-23T16:03:42;3.85;;;3.00;;
11572;SDS011;5842;52.426;4.886;2022-07-23T16:06:09;3.22;;;2.92;;
11572;SDS011;5842;52.426;4.886;2022-07-23T16:08:36;4.28;;;2.70;;
11572;SDS011;5842;52.426;4.886;2022-07-23T16:11:05;3.78;;;2.58;;
11572;SDS011;5842;52.426;4.886;2022-07-23T16:13:34;3.90;;;2.80;;
11572;SDS011;5842;52.426;4.886;2022-07-23T16:16:02;5.22;;;2.60;;
11572;SDS011;5842;52.426;4.886;2022-07-23T16:18:30;3.47;;;2.70;;
11572;SDS011;5842;52.426;4.886;2022-07-23T16:20:57;5.00;;;2.88;;
11572;SDS011;5842;52.426;4.886;2022-07-23T16:23:28;3.42;;;2.80;;
11572;SDS011;5842;52.426;4.886;2022-07-23T16:25:55;3.05;;;2.63;;
11572;SDS011;5842;52.426;4.886;2022-07-23T16:28:24;3.17;;;2.50;;
11572;SDS011;5842;52.426;4.886;2022-07-23T16:30:51;3.90;;;2.67;;
11572;SDS011;5842;52.426;4.886;2022-07-23T16:33:22;5.07;;;3.10;;
11572;SDS011;5842;52.426;4.886;2022-07-23T16:35:49;6.30;;;4.95;;
11572;SDS011;5842;52.426;4.886;2022-07-23T16:38:17;5.90;;;5.22;;
11572;SDS011;5842;52.426;4.886;2022-07-23T16:40:44;5.43;;;4.90;;
11572;SDS011;5842;52.426;4.886;2022-07-23T16:43:12;3.95;;;2.78;;
11572;SDS011;5842;52.426;4.886;2022-07-23T16:45:40;6.75;;;2.95;;
11572;SDS011;5842;52.426;4.886;2022-07-23T16:48:07;3.65;;;2.95;;
11572;SDS011;5842;52.426;4.886;2022-07-23T16:50:35;4.20;;;2.80;;
11572;SDS011;5842;52.426;4.886;2022-07-23T16:53:02;4.50;;;2.80;;
11572;SDS011;5842;52.426;4.886;2022-07-23T16:55:29;3.13;;;2.55;;
11572;SDS011;5842;52.426;4.886;2022-07-23T16:57:56;3.45;;;2.90;;
11572;SDS011;5842;52.426;4.886;2022-07-23T17:00:23;3.75;;;2.88;;
11572;SDS011;5842;52.426;4.886;2022-07-23T17:02:52;3.42;;;2.70;;
11572;SDS011;5842;52.426;4.886;2022-07-23T17:05:19;3.20;;;2.88;;
11572;SDS011;5842;52.426;4.886;2022-07-23T17:07:46;5.05;;;2.88;;
11572;SDS011;5842;52.426;4.886;2022-07-23T17:10:14;3.95;;;3.15;;
11572;SDS011;5842;52.426;4.886;2022-07-23T17:12:41;4.75;;;3.03;;
11572;SDS011;5842;52.426;4.886;2022-07-23T17:15:08;4.43;;;3.45;;
11572;SDS011;5842;52.426;4.886;2022-07-23T17:17:35;5.80;;;3.22;;
11572;SDS011;5842;52.426;4.886;2022-07-23T17:20:06;4.47;;;3.00;;
11572;SDS011;5842;52.426;4.886;2022-07-23T17:22:34;3.45;;;2.80;;
11572;SDS011;5842;52.426;4.886;2022-07-23T17:25:01;4.70;;;3.30;;
11572;SDS011;5842;52.426;4.886;2022-07-23T17:27:34;6.22;;;3.22;;
11572;SDS011;5842;52.426;4.886;2022-07-23T17:30:02;5.40;;;4.60;;
11572;SDS011;5842;52.426;4.886;2022-07-23T17:32:29;4.95;;;3.60;;
11572;SDS011;5842;52.426;4.886;2022-07-23T17:34:56;5.43;;;3.78;;
11572;SDS011;5842;52.426;4.886;2022-07-23T17:37:25;3.55;;;2.95;;
11572;SDS011;5842;52.426;4.886;2022-07-23T17:39:52;4.90;;;2.97;;
11572;SDS011;5842;52.426;4.886;2022-07-23T17:42:19;4.82;;;2.88;;
11572;SDS011;5842;52.426;4.886;2022-07-23T17:44:46;3.45;;;2.60;;
11572;SDS011;5842;52.426;4.886;2022-07-23T17:47:13;2.88;;;2.30;;
11572;SDS011;5842;52.426;4.886;2022-07-23T17:49:40;5.20;;;3.00;;
11572;SDS011;5842;52.426;4.886;2022-07-23T17:52:08;2.95;;;2.60;;
11572;SDS011;5842;52.426;4.886;2022-07-23T17:54:36;3.97;;;2.92;;
11572;SDS011;5842;52.426;4.886;2022-07-23T17:57:14;4.63;;;3.80;;
11572;SDS011;5842;52.426;4.886;2022-07-23T17:59:46;5.25;;;3.60;;
11572;SDS011;5842;52.426;4.886;2022-07-23T18:02:13;3.65;;;3.30;;
11572;SDS011;5842;52.426;4.886;2022-07-23T18:04:40;4.20;;;3.15;;
11572;SDS011;5842;52.426;4.886;2022-07-23T18:07:07;4.35;;;2.85;;
11572;SDS011;5842;52.426;4.886;2022-07-23T18:09:34;5.03;;;3.00;;
11572;SDS011;5842;52.426;4.886;2022-07-23T18:12:03;3.67;;;2.60;;
11572;SDS011;5842;52.426;4.886;2022-07-23T18:14:31;3.72;;;2.90;;
11572;SDS011;5842;52.426;4.886;2022-07-23T18:16:58;4.37;;;2.90;;
11572;SDS011;5842;52.426;4.886;2022-07-23T18:19:25;4.05;;;2.80;;
11572;SDS011;5842;52.426;4.886;2022-07-23T18:21:52;3.65;;;2.90;;
11572;SDS011;5842;52.426;4.886;2022-07-23T18:24:19;4.03;;;3.17;;
11572;SDS011;5842;52.426;4.886;2022-07-23T18:26:49;3.20;;;2.90;;
11572;SDS011;5842;52.426;4.886;2022-07-23T18:29:19;4.50;;;3.17;;
11572;SDS011;5842;52.426;4.886;2022-07-23T18:31:46;3.27;;;2.97;;
11572;SDS011;5842;52.426;4.886;2022-07-23T18:34:13;3.47;;;2.67;;
11572;SDS011;5842;52.426;4.886;2022-07-23T18:36:41;5.00;;;3.07;;
11572;SDS011;5842;52.426;4.886;2022-07-23T18:39:08;3.60;;;3.30;;
11572;SDS011;5842;52.426;4.886;2022-07-23T18:41:36;4.27;;;2.87;;
11572;SDS011;5842;52.426;4.886;2022-07-23T18:44:06;5.60;;;3.07;;
11572;SDS011;5842;52.426;4.886;2022-07-23T18:46:34;4.20;;;3.10;;
11572;SDS011;5842;52.426;4.886;2022-07-23T18:49:01;3.20;;;2.90;;
11572;SDS011;5842;52.426;4.886;2022-07-23T18:51:29;2.93;;;2.60;;
11572;SDS011;5842;52.426;4.886;2022-07-23T18:53:58;3.27;;;2.97;;
11572;SDS011;5842;52.426;4.886;2022-07-23T18:56:27;3.53;;;3.10;;
11572;SDS011;5842;52.426;4.886;2022-07-23T18:58:54;3.17;;;2.60;;
11572;SDS011;5842;52.426;4.886;2022-07-23T19:01:23;5.13;;;3.10;;
11572;SDS011;5842;52.426;4.886;2022-07-23T19:03:54;5.93;;;2.90;;
11572;SDS011;5842;52.426;4.886;2022-07-23T19:06:29;5.67;;;3.10;;
11572;SDS011;5842;52.426;4.886;2022-07-23T19:08:58;3.17;;;2.87;;
11572;SDS011;5842;52.426;4.886;2022-07-23T19:11:56;3.70;;;3.37;;
11572;SDS011;5842;52.426;4.886;2022-07-23T19:14:24;3.20;;;2.77;;
11572;SDS011;5842;52.426;4.886;2022-07-23T19:16:52;3.20;;;2.90;;
11572;SDS011;5842;52.426;4.886;2022-07-23T19:19:20;7.37;;;5.63;;
11572;SDS011;5842;52.426;4.886;2022-07-23T19:21:48;13.80;;;11.90;;
11572;SDS011;5842;52.426;4.886;2022-07-23T19:24:15;14.07;;;12.57;;
11572;SDS011;5842;52.426;4.886;2022-07-23T19:26:42;5.53;;;4.30;;
11572;SDS011;5842;52.426;4.886;2022-07-23T19:29:09;5.80;;;4.00;;
11572;SDS011;5842;52.426;4.886;2022-07-23T19:31:36;9.30;;;6.93;;
11572;SDS011;5842;52.426;4.886;2022-07-23T19:34:05;7.83;;;6.60;;
11572;SDS011;5842;52.426;4.886;2022-07-23T19:36:32;7.43;;;6.30;;
11572;SDS011;5842;52.426;4.886;2022-07-23T19:38:59;6.57;;;5.43;;
11572;SDS011;5842;52.426;4.886;2022-07-23T19:41:26;6.47;;;4.50;;
11572;SDS011;5842;52.426;4.886;2022-07-23T19:43:54;5.77;;;5.13;;
11572;SDS011;5842;52.426;4.886;2022-07-23T19:46:21;8.77;;;7.67;;
11572;SDS011;5842;52.426;4.886;2022-07-23T19:48:48;13.57;;;11.10;;
11572;SDS011;5842;52.426;4.886;2022-07-23T19:51:17;11.30;;;9.60;;
11572;SDS011;5842;52.426;4.886;2022-07-23T19:53:44;10.90;;;8.07;;
11572;SDS011;5842;52.426;4.886;2022-07-23T19:56:14;8.43;;;6.90;;
11572;SDS011;5842;52.426;4.886;2022-07-23T19:58:45;9.17;;;5.60;;
11572;SDS011;5842;52.426;4.886;2022-07-23T20:01:13;7.37;;;5.03;;
11572;SDS011;5842;52.426;4.886;2022-07-23T20:03:40;6.20;;;4.60;;
11572;SDS011;5842;52.426;4.886;2022-07-23T20:06:07;7.60;;;6.27;;
11572;SDS011;5842;52.426;4.886;2022-07-23T20:08:36;10.80;;;8.63;;
11572;SDS011;5842;52.426;4.886;2022-07-23T20:11:03;12.27;;;8.80;;
11572;SDS011;5842;52.426;4.886;2022-07-23T20:13:30;14.40;;;12.70;;
11572;SDS011;5842;52.426;4.886;2022-07-23T20:15:58;40.20;;;35.83;;
11572;SDS011;5842;52.426;4.886;2022-07-23T20:18:25;39.47;;;33.50;;
11572;SDS011;5842;52.426;4.886;2022-07-23T20:20:53;47.97;;;42.80;;
11572;SDS011;5842;52.426;4.886;2022-07-23T20:23:21;50.67;;;45.23;;
11572;SDS011;5842;52.426;4.886;2022-07-23T20:25:51;47.40;;;42.23;;
11572;SDS011;5842;52.426;4.886;2022-07-23T20:28:21;37.43;;;33.53;;
11572;SDS011;5842;52.426;4.886;2022-07-23T20:30:49;20.13;;;18.00;;
11572;SDS011;5842;52.426;4.886;2022-07-23T20:33:16;25.13;;;22.43;;
11572;SDS011;5842;52.426;4.886;2022-07-23T20:35:45;19.73;;;17.73;;
11572;SDS011;5842;52.426;4.886;2022-07-23T20:38:13;16.57;;;14.87;;
11572;SDS011;5842;52.426;4.886;2022-07-23T20:40:41;14.77;;;12.30;;
11572;SDS011;5842;52.426;4.886;2022-07-23T20:43:10;13.77;;;11.20;;
11572;SDS011;5842;52.426;4.886;2022-07-23T20:45:37;11.60;;;9.73;;
11572;SDS011;5842;52.426;4.886;2022-07-23T20:48:05;8.90;;;8.10;;
11572;SDS011;5842;52.426;4.886;2022-07-23T20:50:32;8.53;;;7.60;;
11572;SDS011;5842;52.426;4.886;2022-07-23T20:53:02;7.93;;;6.80;;
11572;SDS011;5842;52.426;4.886;2022-07-23T20:55:30;8.50;;;6.23;;
11572;SDS011;5842;52.426;4.886;2022-07-23T20:57:57;6.67;;;5.87;;
11572;SDS011;5842;52.426;4.886;2022-07-23T21:00:25;6.97;;;6.27;;
11572;SDS011;5842;52.426;4.886;2022-07-23T21:02:52;7.47;;;6.00;;
11572;SDS011;5842;52.426;4.886;2022-07-23T21:05:19;6.10;;;5.37;;
11572;SDS011;5842;52.426;4.886;2022-07-23T21:07:47;5.93;;;5.33;;
11572;SDS011;5842;52.426;4.886;2022-07-23T21:10:14;7.40;;;5.37;;
11572;SDS011;5842;52.426;4.886;2022-07-23T21:12:42;6.67;;;5.80;;
11572;SDS011;5842;52.426;4.886;2022-07-23T21:15:09;6.93;;;5.53;;
11572;SDS011;5842;52.426;4.886;2022-07-23T21:17:38;6.30;;;5.70;;
11572;SDS011;5842;52.426;4.886;2022-07-23T21:20:06;6.40;;;5.43;;
11572;SDS011;5842;52.426;4.886;2022-07-23T21:22:34;7.80;;;5.83;;
11572;SDS011;5842;52.426;4.886;2022-07-23T21:25:01;6.43;;;5.80;;
11572;SDS011;5842;52.426;4.886;2022-07-23T21:27:28;7.70;;;6.27;;
11572;SDS011;5842;52.426;4.886;2022-07-23T21:29:55;7.23;;;6.07;;
11572;SDS011;5842;52.426;4.886;2022-07-23T21:32:22;6.87;;;6.27;;
11572;SDS011;5842;52.426;4.886;2022-07-23T21:34:51;8.70;;;7.13;;
11572;SDS011;5842;52.426;4.886;2022-07-23T21:37:18;8.63;;;7.70;;
11572;SDS011;5842;52.426;4.886;2022-07-23T21:39:46;8.00;;;7.20;;
11572;SDS011;5842;52.426;4.886;2022-07-23T21:42:13;8.53;;;7.70;;
11572;SDS011;5842;52.426;4.886;2022-07-23T21:44:40;8.67;;;7.77;;
11572;SDS011;5842;52.426;4.886;2022-07-23T21:47:07;8.90;;;7.83;;
11572;SDS011;5842;52.426;4.886;2022-07-23T21:49:34;9.67;;;7.60;;
11572;SDS011;5842;52.426;4.886;2022-07-23T21:52:02;8.80;;;7.90;;
11572;SDS011;5842;52.426;4.886;2022-07-23T21:54:30;9.03;;;7.67;;
11572;SDS011;5842;52.426;4.886;2022-07-23T21:56:57;9.00;;;7.70;;
11572;SDS011;5842;52.426;4.886;2022-07-23T21:59:24;8.13;;;7.20;;
11572;SDS011;5842;52.426;4.886;2022-07-23T22:01:51;7.73;;;6.93;;
11572;SDS011;5842;52.426;4.886;2022-07-23T22:04:18;8.90;;;7.70;;
11572;SDS011;5842;52.426;4.886;2022-07-23T22:06:45;9.97;;;8.07;;
11572;SDS011;5842;52.426;4.886;2022-07-23T22:09:14;10.73;;;7.90;;
11572;SDS011;5842;52.426;4.886;2022-07-23T22:11:41;8.83;;;7.93;;
11572;SDS011;5842;52.426;4.886;2022-07-23T22:14:08;9.43;;;8.40;;
11572;SDS011;5842;52.426;4.886;2022-07-23T22:16:35;9.17;;;8.17;;
11572;SDS011;5842;52.426;4.886;2022-07-23T22:19:02;10.90;;;8.90;;
11572;SDS011;5842;52.426;4.886;2022-07-23T22:21:29;10.50;;;8.67;;
11572;SDS011;5842;52.426;4.886;2022-07-23T22:23:56;11.60;;;9.00;;
11572;SDS011;5842;52.426;4.886;2022-07-23T22:26:25;9.80;;;8.80;;
11572;SDS011;5842;52.426;4.886;2022-07-23T22:28:53;10.47;;;8.40;;
11572;SDS011;5842;52.426;4.886;2022-07-23T22:31:21;9.63;;;8.63;;
11572;SDS011;5842;52.426;4.886;2022-07-23T22:33:48;9.87;;;8.87;;
11572;SDS011;5842;52.426;4.886;2022-07-23T22:36:15;10.47;;;8.90;;
11572;SDS011;5842;52.426;4.886;2022-07-23T22:38:42;10.83;;;8.83;;
11572;SDS011;5842;52.426;4.886;2022-07-23T22:41:11;9.37;;;8.33;;
11572;SDS011;5842;52.426;4.886;2022-07-23T22:43:42;9.83;;;8.80;;
11572;SDS011;5842;52.426;4.886;2022-07-23T22:46:09;9.73;;;8.67;;
11572;SDS011;5842;52.426;4.886;2022-07-23T22:48:36;10.33;;;8.77;;
11572;SDS011;5842;52.426;4.886;2022-07-23T22:51:03;10.30;;;8.43;;
11572;SDS011;5842;52.426;4.886;2022-07-23T22:53:31;9.73;;;8.40;;
11572;SDS011;5842;52.426;4.886;2022-07-23T22:55:58;10.63;;;8.90;;
11572;SDS011;5842;52.426;4.886;2022-07-23T22:58:25;9.83;;;8.47;;
11572;SDS011;5842;52.426;4.886;2022-07-23T23:00:53;10.57;;;9.17;;
11572;SDS011;5842;52.426;4.886;2022-07-23T23:03:20;10.00;;;9.00;;
11572;SDS011;5842;52.426;4.886;2022-07-23T23:05:47;10.90;;;9.80;;
11572;SDS011;5842;52.426;4.886;2022-07-23T23:08:14;11.00;;;9.10;;
11572;SDS011;5842;52.426;4.886;2022-07-23T23:10:41;12.03;;;9.67;;
11572;SDS011;5842;52.426;4.886;2022-07-23T23:13:08;10.00;;;8.97;;
11572;SDS011;5842;52.426;4.886;2022-07-23T23:15:36;10.07;;;9.07;;
11572;SDS011;5842;52.426;4.886;2022-07-23T23:18:04;11.03;;;9.53;;
11572;SDS011;5842;52.426;4.886;2022-07-23T23:20:31;11.13;;;9.67;;
11572;SDS011;5842;52.426;4.886;2022-07-23T23:22:58;12.40;;;10.50;;
11572;SDS011;5842;52.426;4.886;2022-07-23T23:25:25;11.60;;;10.40;;
11572;SDS011;5842;52.426;4.886;2022-07-23T23:27:52;11.93;;;10.70;;
11572;SDS011;5842;52.426;4.886;2022-07-23T23:30:19;13.70;;;11.27;;
11572;SDS011;5842;52.426;4.886;2022-07-23T23:32:47;14.77;;;13.20;;
11572;SDS011;5842;52.426;4.886;2022-07-23T23:35:15;17.17;;;15.37;;
11572;SDS011;5842;52.426;4.886;2022-07-23T23:37:42;18.40;;;16.40;;
11572;SDS011;5842;52.426;4.886;2022-07-23T23:40:09;17.90;;;16.07;;
11572;SDS011;5842;52.426;4.886;2022-07-23T23:42:37;17.73;;;15.87;;
11572;SDS011;5842;52.426;4.886;2022-07-23T23:45:04;17.23;;;14.60;;
11572;SDS011;5842;52.426;4.886;2022-07-23T23:47:32;14.83;;;12.77;;
11572;SDS011;5842;52.426;4.886;2022-07-23T23:49:59;16.50;;;13.53;;
11572;SDS011;5842;52.426;4.886;2022-07-23T23:52:28;19.03;;;15.37;;
11572;SDS011;5842;52.426;4.886;2022-07-23T23:54:56;19.40;;;16.00;;